Machigasta, Argentina
Current Conditions -  °F | °C
As of 10:00 AM on Friday 19 Dec 2014 (Local Time) from SANT Reporting Station
Clear Clear  
Wind Chill: 79°   Ceiling: Unl
Heat Index: 81°   Visibility: 6mi
Dew Point: 66°   Wind: 0mph
Humidity: 65%   Direction: NA
Pressure: 29.77"   Gusts: NA
Location:  28.55°S, 66.8°W
Report Text: SANT 191300Z 00000KT CAVOK 26/19 Q1008
Loading
Personal Weather Stations






























Interactive Weather Map New forecast layout! Learn more

10-Day Weather Forecast

Advertisements
Track Severe Weather on mobile